FLIGHT DETAILS
Pilot: SER005 Jeferson Angelo Raimundo Aircraft: B737-800X SERRANA PT-SGE Distance: 344NM
Departure SBCF Arrival SBKP Duration 0.94
Validation Validated Type Regular Tail Number PT-SGF SMT
ZFW 47054 Block Fuel/Initial FOB 2,449/0 Flight Fuel 2,170
Passengers 168 Cargo 0 Alternate SBGR
Departure Time Cruise Speed Flight Level
Flight Type IFR Aircraft Type B738SFP Weight Unit Kg
Date 13-04-19 Pilot Comments Network IVAO
Crashed No Validator Comments Flight Rating 100

 ROUTE
ROUTE MOTMA UZ30 ENTIT
REMARKS
 FLIGHT FAILURES
Crashed OK Beacon off & Engine Running Fail KIAS Above 250 below 10000 FT OK
Lights OFF below 10000 FT Fail Lights ON above 10000 FT Fail Stall OK
Overspeed OK Flight paused OK Refueling OK
Slew detected OK Taxi & Taxi lights off Fail Take off & lights off OK
Landing & lights off OK Landed in not planned airport OK Taxi Speed OK
Wrong altimeter in Take off OK Wrong altimeter in Landing OK
 LANDING ANALYSIS
Landing wind 301º/5 kt Landing heading 312
Landing VS: -136.87 ft/min Landing IAS: 143.22 kt
Landing Force G 2 G Landing Bank -1
Landing Pitch -0.7 Landing Flaps 47
Navigation Lights ON Landing Lights ON
Beacon Lights OFF Strobe Lights OFF
 FLIGHT MAP
 ALTITUDE CHART
 FLIGHT FINANCIAL REPORT
Number of PAX:168 .Price per PAX:540 90,720.00
Serviço de solo -11,400.00
Parqueamento -1,000.00
Alimentação Passageiros(25). Number of PAX: 168 -4,200.00
Gastos com combustível(3.9). Fuel used: 2448.83 -9,550.44
Taxas Aeroportuárias -112.00
Desgaste da aeronave (Manutenção)(2000). Flight duration: 0.94 -1,880.00
TOTAL 62,577.56
 MAIN EVENTS
DATE EVENTIASALTITUDE
2019-04-13 13:24:15 SIM ACARS version 1.4.152721
2019-04-13 13:24:15 BOARDING52721
2019-04-13 13:24:15 STARTING ENGINE 1 52721
2019-04-13 13:24:15 STARTING ENGINE 2 52721
2019-04-13 13:28:17 STOPPING ENGINE 1 52721
2019-04-13 13:29:50 STOPPING ENGINE 2 52721
2019-04-13 13:32:18 STARTING ENGINE 1 02718
2019-04-13 13:32:35 FLAPS EXTENSION 49 % 02718
2019-04-13 13:32:35 FLAPS EXTENSION 69 % 02718
2019-04-13 13:32:35 FLAPS EXTENSION 80 % 02718
2019-04-13 13:32:36 FLAPS EXTENSION 76 % 02718
2019-04-13 13:32:36 FLAPS EXTENSION 73 % 02718
2019-04-13 13:32:36 FLAPS EXTENSION 72 % 02718
2019-04-13 13:32:36 FLAPS EXTENSION 70 % 02718
2019-04-13 13:32:36 FLAPS EXTENSION 63 % 02718
2019-04-13 13:32:36 FLAPS EXTENSION 61 % 02718
2019-04-13 13:32:36 FLAPS EXTENSION 61 % 02718
2019-04-13 13:32:37 FLAPS EXTENSION 59 % 02718
2019-04-13 13:32:37 FLAPS EXTENSION 59 % 02718
2019-04-13 13:32:39 FLAPS EXTENSION 58 % 02718
2019-04-13 13:32:39 FLAPS EXTENSION 57 % 02718
2019-04-13 13:32:39 FLAPS EXTENSION 56 % 02718
2019-04-13 13:32:39 FLAPS EXTENSION 55 % 02718
2019-04-13 13:32:40 FLAPS EXTENSION 54 % 02718
2019-04-13 13:32:40 FLAPS EXTENSION 52 % 02718
2019-04-13 13:32:40 FLAPS EXTENSION 44 % 02718
2019-04-13 13:32:40 FLAPS EXTENSION 36 % 02718
2019-04-13 13:32:40 FLAPS EXTENSION 35 % 02718
2019-04-13 13:32:41 FLAPS EXTENSION 35 % 02718
2019-04-13 13:32:41 FLAPS EXTENSION 35 % 02718
2019-04-13 13:32:41 FLAPS EXTENSION 35 % 02718
2019-04-13 13:32:42 FLAPS EXTENSION 35 % 02718
2019-04-13 13:32:42 FLAPS EXTENSION 36 % 02718
2019-04-13 13:32:42 FLAPS EXTENSION 36 % 02718
2019-04-13 13:32:42 FLAPS EXTENSION 36 % 02718
2019-04-13 13:32:42 FLAPS EXTENSION 36 % 02718
2019-04-13 13:32:42 FLAPS EXTENSION 37 % 02718
2019-04-13 13:32:43 FLAPS EXTENSION 37 % 02718
2019-04-13 13:33:03 STARTING ENGINE 2 02718
2019-04-13 13:35:35 BEACON LIGHT OFF & ENGINE ON72718
2019-04-13 13:35:40 TAXI TO THE RWY 82718
2019-04-13 13:35:40 TAXING WITH TAXI LIGHTS OFF82718
2019-04-13 13:43:07 FLAPS EXTENSION 37 % 92710
2019-04-13 13:43:07 FLAPS EXTENSION 37 % 92710
2019-04-13 13:43:08 FLAPS EXTENSION 38 % 92710
2019-04-13 13:43:08 FLAPS EXTENSION 40 % 92710
2019-04-13 13:43:09 FLAPS EXTENSION 39 % 92710
2019-04-13 13:43:09 FLAPS EXTENSION 39 % 92710
2019-04-13 13:43:09 FLAPS EXTENSION 38 % 92710
2019-04-13 13:43:09 FLAPS EXTENSION 38 % 92710
2019-04-13 13:43:09 FLAPS EXTENSION 46 % 92710
2019-04-13 13:43:09 FLAPS EXTENSION 50 % 92710
2019-04-13 13:43:10 FLAPS EXTENSION 51 % 92710
2019-04-13 13:43:10 FLAPS EXTENSION 50 % 92710
2019-04-13 13:43:10 FLAPS EXTENSION 49 % 92710
2019-04-13 13:43:10 FLAPS EXTENSION 47 % 92710
2019-04-13 13:43:10 FLAPS EXTENSION 45 % 92710
2019-04-13 13:43:10 FLAPS EXTENSION 43 % 92710
2019-04-13 13:43:10 FLAPS EXTENSION 41 % 92710
2019-04-13 13:43:11 FLAPS EXTENSION 40 % 92710
2019-04-13 13:43:11 FLAPS EXTENSION 39 % 92710
2019-04-13 13:43:11 FLAPS EXTENSION 39 % 92710
2019-04-13 13:43:11 FLAPS EXTENSION 39 % 92710
2019-04-13 13:43:11 FLAPS EXTENSION 38 % 92710
2019-04-13 13:43:11 FLAPS EXTENSION 38 % 92710
2019-04-13 13:47:35 ROLLING FOR TAKE OFF412700
2019-04-13 13:48:15 TAKE OFF1332699
2019-04-13 13:48:27 GEAR UP1382836
2019-04-13 13:50:01 FLAPS EXTENSION 11 % 2045953
2019-04-13 13:50:01 FLAPS EXTENSION 0 % 2045964
2019-04-13 13:51:21 LIGHTS ON ABOVE 10000 ft25010502
2019-04-13 14:00:35 CRUISE26335154
2019-04-13 14:25:15 DESCEND27234128
2019-04-13 14:32:15 CRUISE30117118
2019-04-13 14:33:15 DESCEND29716296
2019-04-13 14:34:25 CRUISE30115117
2019-04-13 14:34:55 DESCEND29514417
2019-04-13 14:38:21 LIGHTS OFF BELOW 10000 ft2409498
2019-04-13 14:41:29 FLAPS EXTENSION 13 % 1786541
2019-04-13 14:41:29 FLAPS EXTENSION 21 % 1786540
2019-04-13 14:41:29 FLAPS EXTENSION 21 % 1786539
2019-04-13 14:41:30 FLAPS EXTENSION 23 % 1776532
2019-04-13 14:41:30 FLAPS EXTENSION 25 % 1776531
2019-04-13 14:41:30 FLAPS EXTENSION 26 % 1776529
2019-04-13 14:41:45 FLAPS EXTENSION 25 % 1756276
2019-04-13 14:41:45 FLAPS EXTENSION 39 % 1756268
2019-04-13 14:41:46 FLAPS EXTENSION 44 % 1756266
2019-04-13 14:41:46 FLAPS EXTENSION 44 % 1756262
2019-04-13 14:41:46 FLAPS EXTENSION 44 % 1746260
2019-04-13 14:41:46 FLAPS EXTENSION 45 % 1746257
2019-04-13 14:41:46 FLAPS EXTENSION 45 % 1746254
2019-04-13 14:41:46 FLAPS EXTENSION 46 % 1746250
2019-04-13 14:41:46 FLAPS EXTENSION 47 % 1746248
2019-04-13 14:41:47 FLAPS EXTENSION 48 % 1746246
2019-04-13 14:41:47 FLAPS EXTENSION 48 % 1746241
2019-04-13 14:41:47 FLAPS EXTENSION 49 % 1746238
2019-04-13 14:41:47 FLAPS EXTENSION 49 % 1746236
2019-04-13 14:41:48 FLAPS EXTENSION 49 % 1746218
2019-04-13 14:41:48 FLAPS EXTENSION 51 % 1746213
2019-04-13 14:41:48 FLAPS EXTENSION 52 % 1746210
2019-04-13 14:41:48 FLAPS EXTENSION 50 % 1746205
2019-04-13 14:41:48 FLAPS EXTENSION 48 % 1746202
2019-04-13 14:41:50 FLAPS EXTENSION 49 % 1736165
2019-04-13 14:41:50 FLAPS EXTENSION 50 % 1736161
2019-04-13 14:41:50 FLAPS EXTENSION 49 % 1736152
2019-04-13 14:41:50 FLAPS EXTENSION 49 % 1736149
2019-04-13 14:42:35 CRUISE1485152
2019-04-13 14:42:38 FLAPS EXTENSION 50 % 1485159
2019-04-13 14:42:38 FLAPS EXTENSION 97 % 1485160
2019-04-13 14:42:39 FLAPS EXTENSION 89 % 1495166
2019-04-13 14:42:39 FLAPS EXTENSION 93 % 1495167
2019-04-13 14:42:39 FLAPS EXTENSION 89 % 1495168
2019-04-13 14:42:40 FLAPS EXTENSION 91 % 1495170
2019-04-13 14:42:40 FLAPS EXTENSION 95 % 1495171
2019-04-13 14:42:41 FLAPS EXTENSION 96 % 1485180
2019-04-13 14:42:41 FLAPS EXTENSION 99 % 1475181
2019-04-13 14:42:42 FLAPS EXTENSION 100 % 1475182
2019-04-13 14:42:43 FLAPS EXTENSION 99 % 1455190
2019-04-13 14:43:45 DESCEND1524284
2019-04-13 14:45:09 GEAR DOWN1432439
2019-04-13 14:45:34 LANDING1432166
2019-04-13 14:46:36 TAXI TO THE GATE202193
 ACARS DATA
There was an error running the query [The SELECT would examine more than MAX_JOIN_SIZE rows; check your WHERE and use SET SQL_BIG_SELECTS=1 or SET MAX_JOIN_SIZE=# if the SELECT is okay]